createdAt,value
2023-02-15T00:02:06.315Z,102525.91
2023-02-15T00:04:48.030Z,102529.69
2023-02-15T00:07:19.797Z,102528.22
2023-02-15T00:09:48.542Z,102514.25
2023-02-15T00:12:17.561Z,102518.47
2023-02-15T00:14:45.808Z,102516.66
2023-02-15T00:17:13.703Z,102519.56
2023-02-15T00:19:42.111Z,102515.13
2023-02-15T00:22:10.331Z,102509.16
2023-02-15T00:24:39.626Z,102504.44
2023-02-15T00:27:07.639Z,102505.94
2023-02-15T00:29:35.632Z,102504.53
2023-02-15T00:32:03.535Z,102509.94
2023-02-15T00:34:31.510Z,102500.94
2023-02-15T00:36:59.440Z,102502.03
2023-02-15T00:39:28.304Z,102485.94
2023-02-15T00:41:57.851Z,102487.03
2023-02-15T00:44:25.719Z,102490.78
2023-02-15T00:46:53.624Z,102487.03
2023-02-15T00:49:22.434Z,102486.06
2023-02-15T00:51:50.342Z,102491.47
2023-02-15T00:54:18.225Z,102492.31
2023-02-15T00:56:46.131Z,102491.34
2023-02-15T00:59:15.559Z,102495.66
2023-02-15T01:01:43.496Z,102488.78
2023-02-15T01:04:11.396Z,102491.66
2023-02-15T01:06:39.338Z,102490.13
2023-02-15T01:09:07.434Z,102489.25
2023-02-15T01:11:35.331Z,102481.13
2023-02-15T01:14:04.221Z,102480.84
2023-02-15T01:16:33.598Z,102477.09
2023-02-15T01:19:03.535Z,102483.38
2023-02-15T01:21:35.383Z,102480.66
2023-02-15T01:24:04.380Z,102471.47
2023-02-15T01:26:32.278Z,102471.69
2023-02-15T01:29:00.391Z,102460.97
2023-02-15T01:31:28.361Z,102457.41
2023-02-15T01:33:57.823Z,102460.97
2023-02-15T01:36:25.694Z,102469.16
2023-02-15T01:38:53.659Z,102455.66
2023-02-15T01:41:28.157Z,102452.03
2023-02-15T01:43:58.518Z,102452.94
2023-02-15T01:46:30.963Z,102422.50
2023-02-15T01:49:04.185Z,102447.88
2023-02-15T01:51:36.699Z,102438.16
2023-02-15T01:54:11.931Z,102435.66
2023-02-15T01:56:41.809Z,102434.91
2023-02-15T01:59:16.954Z,102437.50
2023-02-15T02:01:46.069Z,102430.47
2023-02-15T02:04:19.555Z,102430.47
2023-02-15T02:06:50.985Z,102420.97
2023-02-15T02:09:19.102Z,102423.53
2023-02-15T02:11:49.499Z,102422.69
2023-02-15T02:14:18.022Z,102417.59
2023-02-15T02:16:52.099Z,102423.00
2023-02-15T02:20:07.130Z,102411.13
2023-02-15T02:22:59.143Z,102407.78
2023-02-15T02:26:09.385Z,102408.75
2023-02-15T02:29:06.332Z,102405.19
2023-02-15T02:31:54.041Z,102409.19
2023-02-15T02:34:30.645Z,102397.81
2023-02-15T02:37:04.038Z,102393.09
2023-02-15T02:39:40.143Z,102362.44
2023-02-15T02:42:14.486Z,102381.09
2023-02-15T02:44:46.100Z,102383.91
2023-02-15T02:47:18.535Z,102382.94
2023-02-15T02:49:47.887Z,102376.53
2023-02-15T02:52:36.943Z,102373.00
2023-02-15T02:55:08.387Z,102344.47
2023-02-15T02:57:42.568Z,102380.78
2023-02-15T03:00:12.020Z,102371.91
2023-02-15T03:02:44.211Z,102372.53
2023-02-15T03:05:17.761Z,102372.34
2023-02-15T03:07:48.850Z,102366.94
2023-02-15T03:10:17.682Z,102378.59
2023-02-15T03:12:45.846Z,102371.59
2023-02-15T03:15:18.096Z,102384.22
2023-02-15T03:17:50.167Z,102368.00
2023-02-15T03:20:26.454Z,102372.47
2023-02-15T03:23:00.381Z,102362.41
2023-02-15T03:25:33.757Z,102369.66
2023-02-15T03:28:05.641Z,102363.91
2023-02-15T03:30:36.913Z,102363.28
2023-02-15T03:33:06.881Z,102362.50
2023-02-15T03:35:41.404Z,102352.47
2023-02-15T03:38:11.754Z,102348.13
2023-02-15T03:40:59.880Z,102338.31
2023-02-15T03:43:33.542Z,102345.69
2023-02-15T03:46:08.714Z,102341.97
2023-02-15T03:48:41.599Z,102338.53
2023-02-15T03:51:33.728Z,102336.91
2023-02-15T03:54:03.941Z,102342.66
2023-02-15T03:56:32.126Z,102341.88
2023-02-15T03:59:17.354Z,102346.44
2023-02-15T04:02:00.148Z,102332.41
2023-02-15T04:04:36.391Z,102331.63
2023-02-15T04:07:08.533Z,102316.63
2023-02-15T04:09:54.144Z,102313.72
2023-02-15T04:12:22.578Z,102309.47
2023-02-15T04:15:07.817Z,102310.25
2023-02-15T04:17:35.924Z,102301.28
2023-02-15T04:20:21.470Z,102304.09
2023-02-15T04:23:08.390Z,102294.38
2023-02-15T04:25:36.346Z,102300.97
2023-02-15T04:28:04.587Z,102291.22
2023-02-15T04:30:32.652Z,102293.91
2023-02-15T04:33:00.619Z,102296.72
2023-02-15T04:35:28.792Z,102295.63
2023-02-15T04:37:58.221Z,102286.59
2023-02-15T04:40:26.298Z,102289.31
2023-02-15T04:42:54.284Z,102287.47
2023-02-15T04:45:22.162Z,102285.69
2023-02-15T04:47:50.434Z,102286.59
2023-02-15T04:50:18.548Z,102282.25
2023-02-15T04:52:46.867Z,102281.00
2023-02-15T04:55:16.319Z,102279.03
2023-02-15T04:57:44.372Z,102276.34
2023-02-15T05:00:13.075Z,102271.69
2023-02-15T05:02:40.975Z,102278.16
2023-02-15T05:05:10.517Z,102277.31
2023-02-15T05:07:38.400Z,102264.88
2023-02-15T05:10:07.444Z,102267.72
2023-02-15T05:12:36.893Z,102272.91
2023-02-15T05:15:05.157Z,102272.16
2023-02-15T05:17:33.062Z,102266.75
2023-02-15T05:20:01.071Z,102264.88
2023-02-15T05:22:29.138Z,102260.66
2023-02-15T05:25:14.770Z,102260.66
2023-02-15T05:28:01.316Z,102262.59
2023-02-15T05:30:29.515Z,102263.69
2023-02-15T05:32:57.754Z,102255.59
2023-02-15T05:35:26.009Z,102255.59
2023-02-15T05:37:54.188Z,102256.56
2023-02-15T05:40:22.148Z,102257.31
2023-02-15T05:42:51.657Z,102248.25
2023-02-15T05:45:19.836Z,102249.44
2023-02-15T05:47:48.170Z,102249.53
2023-02-15T05:50:16.170Z,102248.66
2023-02-15T05:52:44.278Z,102256.69
2023-02-15T05:55:12.432Z,102250.19
2023-02-15T05:57:40.419Z,102250.94
2023-02-15T06:00:11.080Z,102248.13
2023-02-15T06:02:42.003Z,102244.47
2023-02-15T06:05:10.224Z,102246.00
2023-02-15T06:07:38.278Z,102238.88
2023-02-15T06:10:07.462Z,102240.81
2023-02-15T06:12:35.396Z,102239.28
2023-02-15T06:15:03.395Z,102233.13
2023-02-15T06:17:32.780Z,102232.47
2023-02-15T06:20:00.733Z,102234.56
2023-02-15T06:22:28.705Z,102237.47
2023-02-15T06:24:56.655Z,102230.44
2023-02-15T06:27:24.646Z,102234.22
2023-02-15T06:29:52.640Z,102230.66
2023-02-15T06:32:20.606Z,102220.19
2023-02-15T06:34:49.889Z,102231.75
2023-02-15T06:37:17.826Z,102221.59
2023-02-15T06:39:45.825Z,102221.59
2023-02-15T06:42:13.808Z,102219.88
2023-02-15T06:44:41.877Z,102218.91
2023-02-15T06:47:09.773Z,102217.03
2023-02-15T06:49:37.717Z,102224.19
2023-02-15T06:52:07.223Z,102229.69
2023-02-15T06:54:35.159Z,102214.25
2023-02-15T06:57:03.214Z,102230.00
2023-02-15T06:59:31.267Z,102211.66
2023-02-15T07:01:59.571Z,102222.88
2023-02-15T07:04:29.639Z,102230.78
2023-02-15T07:06:57.751Z,102227.00
2023-02-15T07:09:27.332Z,102231.41
2023-02-15T07:12:17.888Z,102230.66
2023-02-15T07:14:45.927Z,102236.06
2023-02-15T07:17:34.468Z,102230.44
2023-02-15T07:20:01.897Z,102225.19
2023-02-15T07:22:29.952Z,102228.47
2023-02-15T07:24:59.679Z,102223.75
2023-02-15T07:27:27.599Z,102220.81
2023-02-15T07:29:55.602Z,102223.09
2023-02-15T07:32:23.679Z,102226.34
2023-02-15T07:34:51.624Z,102217.81
2023-02-15T07:37:19.572Z,102214.56
2023-02-15T07:39:47.566Z,102216.84
2023-02-15T07:42:17.071Z,102212.28
2023-02-15T07:44:45.046Z,102216.53
2023-02-15T07:47:14.059Z,102221.50
2023-02-15T07:49:42.328Z,102214.03
2023-02-15T07:52:10.398Z,102210.38
2023-02-15T07:54:38.394Z,102204.84
2023-02-15T07:57:06.509Z,102200.25
2023-02-15T07:59:35.896Z,102202.94
2023-02-15T08:02:03.952Z,102201.31
2023-02-15T08:04:32.142Z,102195.34
2023-02-15T08:07:00.131Z,102198.06
2023-02-15T08:09:28.063Z,102196.44
2023-02-15T08:11:56.025Z,102193.97
2023-02-15T08:14:24.231Z,102189.88
2023-02-15T08:16:54.314Z,102194.72
2023-02-15T08:19:24.011Z,102184.47
2023-02-15T08:21:54.425Z,102189.22
2023-02-15T08:24:25.283Z,102187.06
2023-02-15T08:26:53.877Z,102189.09
2023-02-15T08:29:24.290Z,102187.03
2023-02-15T08:31:56.218Z,102184.03
2023-02-15T08:34:24.451Z,102173.00
2023-02-15T08:36:52.428Z,102177.97
2023-02-15T08:39:20.558Z,102169.00
2023-02-15T08:41:49.396Z,102173.31
2023-02-15T08:44:19.213Z,102165.97
2023-02-15T08:46:49.009Z,102166.63
2023-02-15T08:49:21.990Z,102135.88
2023-02-15T08:51:51.354Z,102140.19
2023-02-15T08:54:20.839Z,102133.56
2023-02-15T08:56:49.021Z,102160.28
2023-02-15T08:59:19.628Z,102160.72
2023-02-15T09:01:50.763Z,102156.69
2023-02-15T09:04:21.097Z,102157.31
2023-02-15T09:06:50.804Z,102155.59
2023-02-15T09:09:19.407Z,102154.50
2023-02-15T09:11:48.909Z,102152.66
2023-02-15T09:14:21.006Z,102156.88
2023-02-15T09:16:51.957Z,102161.78
2023-02-15T09:19:23.431Z,102148.06
2023-02-15T09:21:52.466Z,102146.34
2023-02-15T09:24:20.534Z,102147.31
2023-02-15T09:26:50.201Z,102145.13
2023-02-15T09:29:19.380Z,102153.56
2023-02-15T09:31:49.782Z,102142.97
2023-02-15T09:34:19.928Z,102146.66
2023-02-15T09:36:49.578Z,102116.00
2023-02-15T09:39:20.377Z,102128.50
2023-02-15T09:42:15.214Z,102132.31
2023-02-15T09:45:00.170Z,102132.72
2023-02-15T09:47:52.433Z,102130.75
2023-02-15T09:50:28.067Z,102130.28
2023-02-15T09:53:22.066Z,102120.06
2023-02-15T09:55:56.621Z,102114.66
2023-02-15T09:58:35.627Z,102125.38
2023-02-15T10:01:11.076Z,102124.75
2023-02-15T10:03:59.982Z,102111.97
2023-02-15T10:06:42.744Z,102105.53
2023-02-15T10:09:35.189Z,102103.63
2023-02-15T10:12:30.121Z,102101.75
2023-02-15T10:15:15.614Z,102094.44
2023-02-15T10:17:59.103Z,102091.25
2023-02-15T10:20:36.438Z,102084.81
2023-02-15T10:23:19.237Z,102088.47
2023-02-15T10:25:53.927Z,102081.81
2023-02-15T10:28:28.838Z,102082.06
2023-02-15T10:31:07.016Z,102080.53
2023-02-15T10:33:41.413Z,102083.72
2023-02-15T10:36:22.294Z,102083.81
2023-02-15T10:38:56.483Z,102072.41
2023-02-15T10:41:41.600Z,102072.59
2023-02-15T10:44:26.104Z,102071.06
2023-02-15T10:47:19.614Z,102072.50
2023-02-15T10:50:08.487Z,102070.91
2023-02-15T10:52:54.786Z,102066.47
2023-02-15T10:55:32.985Z,102065.84
2023-02-15T10:58:14.429Z,102064.84
2023-02-15T11:00:47.522Z,102052.56
2023-02-15T11:03:35.467Z,102057.00
2023-02-15T11:06:08.209Z,102054.31
2023-02-15T11:08:41.607Z,102053.66
2023-02-15T11:11:14.514Z,102048.38
2023-02-15T11:13:47.492Z,102042.88
2023-02-15T11:16:18.923Z,102043.63
2023-02-15T11:18:53.618Z,102009.81
2023-02-15T11:21:24.359Z,102032.81
2023-02-15T11:23:53.993Z,102023.97
2023-02-15T11:26:29.934Z,102034.78
2023-02-15T11:29:03.799Z,102024.66
2023-02-15T11:31:44.462Z,102026.03
2023-02-15T11:34:19.832Z,102028.00
2023-02-15T11:36:51.116Z,102030.56
2023-02-15T11:39:22.019Z,102020.03
2023-02-15T11:41:54.903Z,102020.03
2023-02-15T11:44:28.319Z,102027.25
2023-02-15T11:46:56.370Z,102009.47
2023-02-15T11:49:27.522Z,102011.06
2023-02-15T11:51:57.165Z,102020.13
2023-02-15T11:54:36.583Z,102021.94
2023-02-15T11:57:16.657Z,102018.41
2023-02-15T11:59:51.819Z,102005.38
2023-02-15T12:02:21.902Z,102011.50
2023-02-15T12:04:54.704Z,102000.72
2023-02-15T12:07:27.083Z,102007.94
2023-02-15T12:10:01.455Z,102002.53
2023-02-15T12:12:30.853Z,101970.56
2023-02-15T12:15:01.737Z,101994.59
2023-02-15T12:17:32.658Z,101997.38
2023-02-15T12:20:04.625Z,101989.28
2023-02-15T12:22:35.007Z,102001.06
2023-02-15T12:25:05.989Z,101991.22
2023-02-15T12:27:36.655Z,101978.97
2023-02-15T12:30:08.469Z,101978.84
2023-02-15T12:32:38.435Z,101983.38
2023-02-15T12:35:12.562Z,101984.22
2023-02-15T12:37:40.572Z,101975.41
2023-02-15T12:40:22.644Z,101978.97
2023-02-15T12:42:50.807Z,101974.66
2023-02-15T12:45:26.418Z,101969.25
2023-02-15T12:48:18.622Z,101971.25
2023-02-15T12:50:54.771Z,101970.25
2023-02-15T12:53:24.865Z,101961.56
2023-02-15T12:55:55.414Z,101954.72
2023-02-15T12:58:26.291Z,101957.84
2023-02-15T13:01:16.513Z,101951.00
2023-02-15T13:03:59.849Z,101950.25
2023-02-15T13:06:29.530Z,101944.72
2023-02-15T13:09:00.468Z,101940.34
2023-02-15T13:11:35.060Z,101938.59
2023-02-15T13:14:05.516Z,101941.78
2023-02-15T13:16:38.766Z,101943.50
2023-02-15T13:19:13.580Z,101935.63
2023-02-15T13:21:46.119Z,101946.53
2023-02-15T13:24:22.941Z,101931.44
2023-02-15T13:26:51.214Z,101932.41
2023-02-15T13:29:24.585Z,101937.94
2023-02-15T13:31:56.249Z,101929.09
2023-02-15T13:34:27.822Z,101931.03
2023-02-15T13:37:01.517Z,101927.59
2023-02-15T13:39:36.372Z,101930.41
2023-02-15T13:42:15.499Z,101917.91
2023-02-15T13:45:09.154Z,101927.22
2023-02-15T13:47:47.774Z,101918.34
2023-02-15T13:50:32.031Z,101917.59
2023-02-15T13:53:18.622Z,101915.13
2023-02-15T13:55:53.088Z,101906.44
2023-02-15T13:58:50.297Z,101905.06
2023-02-15T14:01:28.667Z,101905.06
2023-02-15T14:04:23.024Z,101905.06
2023-02-15T14:07:22.392Z,101901.84
2023-02-15T14:10:02.449Z,101897.19
2023-02-15T14:12:43.436Z,101896.22
2023-02-15T14:15:26.576Z,101903.53
2023-02-15T14:18:06.192Z,101899.13
2023-02-15T14:20:47.191Z,101894.72
2023-02-15T14:23:31.151Z,101893.22
2023-02-15T14:26:03.721Z,101898.72
2023-02-15T14:28:40.454Z,101888.94
2023-02-15T14:31:12.171Z,101886.34
2023-02-15T14:33:43.825Z,101882.91
2023-02-15T14:36:17.525Z,101881.06
2023-02-15T14:39:01.920Z,101880.19
2023-02-15T14:41:37.978Z,101882.03
2023-02-15T14:44:14.680Z,101879.97
2023-02-15T14:46:50.373Z,101878.00
2023-02-15T14:49:23.004Z,101862.81
2023-02-15T14:52:02.699Z,101867.97
2023-02-15T14:54:59.783Z,101859.56
2023-02-15T14:57:35.813Z,101853.91
2023-02-15T15:00:41.963Z,101854.53
2023-02-15T15:03:22.220Z,101857.38
2023-02-15T15:05:53.923Z,101853.28
2023-02-15T15:08:31.051Z,101853.91
2023-02-15T15:10:59.688Z,101855.63
2023-02-15T15:13:54.833Z,101859.06
2023-02-15T15:16:49.660Z,101787.75
2023-02-15T15:20:08.427Z,101851.56
2023-02-15T15:22:38.272Z,101816.38
2023-02-15T15:25:12.470Z,101846.75
2023-02-15T15:27:46.823Z,101843.41
2023-02-15T15:30:50.001Z,101841.94
2023-02-15T15:33:56.613Z,101844.94
2023-02-15T15:37:02.620Z,101828.25
2023-02-15T15:40:19.363Z,101836.22
2023-02-15T15:43:17.211Z,101834.75
2023-02-15T15:46:12.652Z,101839.25
2023-02-15T15:48:42.423Z,101833.97
2023-02-15T15:51:20.300Z,101826.00
2023-02-15T15:53:54.080Z,101818.06
2023-02-15T15:56:25.559Z,101813.41
2023-02-15T15:58:59.612Z,101815.75
2023-02-15T16:01:30.435Z,101809.25
2023-02-15T16:04:01.124Z,101807.22
2023-02-15T16:06:35.121Z,101800.81
2023-02-15T16:09:19.972Z,101807.06
2023-02-15T16:11:49.911Z,101792.63
2023-02-15T16:14:27.927Z,101788.94
2023-02-15T16:16:59.339Z,101792.63
2023-02-15T16:19:30.717Z,101789.81
2023-02-15T16:22:01.514Z,101780.66
2023-02-15T16:24:48.461Z,101781.16
2023-02-15T16:27:35.446Z,101784.59
2023-02-15T16:30:39.509Z,101770.50
2023-02-15T16:33:09.689Z,101777.09
2023-02-15T16:35:39.612Z,101774.53
2023-02-15T16:38:10.973Z,101765.38
2023-02-15T16:40:47.853Z,101766.13
2023-02-15T16:43:25.167Z,101732.84
2023-02-15T16:45:58.690Z,101766.59
2023-02-15T16:48:29.366Z,101761.31
2023-02-15T16:50:59.911Z,101762.50
2023-02-15T16:53:30.252Z,101761.53
2023-02-15T16:56:01.661Z,101754.56
2023-02-15T16:58:34.380Z,101752.72
2023-02-15T17:01:05.056Z,101750.03
2023-02-15T17:03:33.390Z,101757.13
2023-02-15T17:06:03.870Z,101755.28
2023-02-15T17:08:34.090Z,101749.91
2023-02-15T17:11:16.615Z,101744.50
2023-02-15T17:14:23.770Z,101740.94
2023-02-15T17:16:57.401Z,101743.63
2023-02-15T17:19:29.104Z,101734.59
2023-02-15T17:21:59.309Z,101738.66
2023-02-15T17:24:37.308Z,101740.91
2023-02-15T17:27:12.365Z,101737.94
2023-02-15T17:29:42.994Z,101747.75
2023-02-15T17:32:19.979Z,101741.22
2023-02-15T17:35:11.158Z,101736.78
2023-02-15T17:37:48.473Z,101728.69
2023-02-15T17:40:25.181Z,101736.97
2023-02-15T17:42:53.676Z,101724.72
2023-02-15T17:45:22.993Z,101722.78
2023-02-15T17:47:52.844Z,101719.34
2023-02-15T17:50:23.328Z,101725.06
2023-02-15T17:52:52.172Z,101721.63
2023-02-15T17:55:40.035Z,101720.03
2023-02-15T17:58:11.220Z,101715.63
2023-02-15T18:01:00.471Z,101712.94
2023-02-15T18:03:56.978Z,101702.25
2023-02-15T18:06:42.806Z,101702.38
2023-02-15T18:09:30.670Z,101702.47
2023-02-15T18:11:59.678Z,101676.56
2023-02-15T18:14:27.939Z,101692.06
2023-02-15T18:16:56.775Z,101691.53
2023-02-15T18:19:27.810Z,101694.97
2023-02-15T18:21:57.767Z,101694.38
2023-02-15T18:24:27.684Z,101688.97
2023-02-15T18:26:56.076Z,101686.38
2023-02-15T18:29:24.091Z,101681.88
2023-02-15T18:31:56.967Z,101682.13
2023-02-15T18:34:30.833Z,101677.25
2023-02-15T18:36:59.813Z,101674.19
2023-02-15T18:39:37.671Z,101675.94
2023-02-15T18:42:06.192Z,101664.72
2023-02-15T18:44:34.173Z,101663.03
2023-02-15T18:47:02.151Z,101669.66
2023-02-15T18:49:31.430Z,101663.53
2023-02-15T18:51:59.451Z,101657.63
2023-02-15T18:54:27.415Z,101647.06
2023-02-15T18:56:57.734Z,101653.41
2023-02-15T18:59:27.676Z,101641.41
2023-02-15T19:01:55.821Z,101655.38
2023-02-15T19:04:25.706Z,101646.56
2023-02-15T19:06:55.464Z,101645.78
2023-02-15T19:09:26.214Z,101641.50
2023-02-15T19:11:55.791Z,101647.25
2023-02-15T19:14:29.799Z,101645.78
2023-02-15T19:16:59.527Z,101640.63
2023-02-15T19:19:28.674Z,101635.34
2023-02-15T19:21:58.094Z,101630.81
2023-02-15T19:24:34.140Z,101594.63
2023-02-15T19:27:02.674Z,101611.06
2023-02-15T19:29:31.799Z,101611.06
2023-02-15T19:32:00.243Z,101605.81
2023-02-15T19:34:28.976Z,101601.38
2023-02-15T19:36:58.614Z,101597.09
2023-02-15T19:39:29.265Z,101591.13
2023-02-15T19:41:57.298Z,101586.81
2023-02-15T19:44:25.688Z,101587.66
2023-02-15T19:46:54.187Z,101582.53
2023-02-15T19:49:22.286Z,101583.50
2023-02-15T19:51:50.523Z,101587.41
2023-02-15T19:54:30.770Z,101578.25
2023-02-15T19:56:59.051Z,101584.53
2023-02-15T19:59:28.625Z,101571.53
2023-02-15T20:01:57.086Z,101578.91
2023-02-15T20:04:25.848Z,101576.81
2023-02-15T20:06:56.930Z,101574.56
2023-02-15T20:09:29.895Z,101575.81
2023-02-15T20:11:58.127Z,101571.84
2023-02-15T20:14:26.368Z,101560.97
2023-02-15T20:16:54.338Z,101553.88
2023-02-15T20:19:22.335Z,101561.22
2023-02-15T20:21:54.442Z,101550.94
2023-02-15T20:24:24.324Z,101558.94
2023-02-15T20:26:53.711Z,101552.44
2023-02-15T20:29:21.646Z,101561.13
2023-02-15T20:31:49.778Z,101549.50
2023-02-15T20:34:17.804Z,101551.19
2023-02-15T20:36:45.877Z,101551.09
2023-02-15T20:39:17.394Z,101548.69
2023-02-15T20:41:48.341Z,101548.41
2023-02-15T20:44:22.098Z,101550.53
2023-02-15T20:46:52.347Z,101545.25
2023-02-15T20:49:20.274Z,101541.59
2023-02-15T20:51:48.563Z,101539.84
2023-02-15T20:54:18.883Z,101548.19
2023-02-15T20:56:47.481Z,101537.16
2023-02-15T20:59:27.724Z,101541.69
2023-02-15T21:02:00.386Z,101536.38
2023-02-15T21:04:32.365Z,101539.81
2023-02-15T21:07:00.855Z,101538.06
2023-02-15T21:09:29.406Z,101537.34
2023-02-15T21:11:59.693Z,101536.38
2023-02-15T21:14:29.777Z,101541.53
2023-02-15T21:16:57.706Z,101538.69
2023-02-15T21:19:25.839Z,101532.56
2023-02-15T21:21:54.743Z,101535.03
2023-02-15T21:24:25.683Z,101536.47
2023-02-15T21:26:55.105Z,101531.72
2023-02-15T21:29:24.752Z,101541.03
2023-02-15T21:31:54.326Z,101532.53
2023-02-15T21:34:22.403Z,101531.56
2023-02-15T21:36:51.381Z,101521.38
2023-02-15T21:39:22.483Z,101523.06
2023-02-15T21:42:09.536Z,101513.13
2023-02-15T21:44:54.886Z,101514.13
2023-02-15T21:47:43.866Z,101514.50
2023-02-15T21:50:32.555Z,101508.13
2023-02-15T21:53:00.691Z,101498.31
2023-02-15T21:55:28.892Z,101504.81
2023-02-15T21:57:57.049Z,101498.94
2023-02-15T22:00:26.318Z,101495.63
2023-02-15T22:02:59.172Z,101486.78
2023-02-15T22:05:30.816Z,101481.16
2023-02-15T22:07:59.090Z,101485.59
2023-02-15T22:10:30.411Z,101476.53
2023-02-15T22:13:00.609Z,101481.06
2023-02-15T22:15:33.315Z,101487.91
2023-02-15T22:18:02.804Z,101489.63
2023-02-15T22:20:31.157Z,101463.13
2023-02-15T22:22:59.072Z,101481.38
2023-02-15T22:25:27.870Z,101479.44
2023-02-15T22:27:56.408Z,101480.31
2023-02-15T22:30:27.196Z,101481.16
2023-02-15T22:32:56.078Z,101478.63
2023-02-15T22:35:27.702Z,101481.91
2023-02-15T22:37:56.179Z,101470.22
2023-02-15T22:40:28.544Z,101461.06
2023-02-15T22:42:58.038Z,101471.00
2023-02-15T22:45:28.083Z,101442.56
2023-02-15T22:47:59.676Z,101466.81
2023-02-15T22:50:31.849Z,101455.03
2023-02-15T22:53:01.912Z,101467.75
2023-02-15T22:55:34.057Z,101457.41
2023-02-15T22:58:02.750Z,101462.72
2023-02-15T23:00:35.068Z,101452.38
2023-02-15T23:03:03.154Z,101449.53
2023-02-15T23:05:32.765Z,101446.47
2023-02-15T23:08:00.721Z,101449.28
2023-02-15T23:10:31.280Z,101446.19
2023-02-15T23:13:18.936Z,101447.91
2023-02-15T23:15:48.962Z,101440.78
2023-02-15T23:18:19.984Z,101442.50
2023-02-15T23:20:52.697Z,101431.59
2023-02-15T23:23:27.162Z,101434.75
2023-02-15T23:25:55.283Z,101426.50
2023-02-15T23:28:26.720Z,101422.69
2023-02-15T23:30:54.850Z,101415.56
2023-02-15T23:33:25.140Z,101413.00
2023-02-15T23:35:54.474Z,101409.44
2023-02-15T23:38:27.374Z,101404.66
2023-02-15T23:41:15.705Z,101413.59
2023-02-15T23:43:47.534Z,101408.47
2023-02-15T23:46:29.104Z,101384.63
2023-02-15T23:48:57.366Z,101401.88
2023-02-15T23:51:30.494Z,101407.75
2023-02-15T23:53:59.248Z,101407.75
2023-02-15T23:56:27.481Z,101402.34
2023-02-15T23:58:55.560Z,101398.06
